Time;durP1;ratioP1;P1;durP2;ratioP2;P2;SDS_P1;SDS_P2;PMS_P1;PMS_P2;Temp;Humidity;BMP_temperature;BMP_pressure;BME280_temperature;BME280_humidity;BME280_pressure;Samples;Min_cycle;Max_cycle;Signal;HPM_P1;HPM_P2
2021/03/02 18:18:29;;;;;;;35.13;15.40;;;7.90;94.30;;;;;;5004837;28;20051;-86
2021/03/02 18:20:59;;;;;;;31.05;15.73;;;7.80;94.60;;;;;;5000712;28;20058;-86
2021/03/02 18:24:02;;;;;;;33.47;15.80;;;7.70;95.70;;;;;;4987670;28;20062;-87
2021/03/02 18:26:29;;;;;;;36.83;17.50;;;7.60;96.60;;;;;;4918549;28;146197;-86
2021/03/02 18:29:33;;;;;;;;;;;7.50;99.90;;;;;;522622;28;161841196;-87
2021/03/02 18:32:19;;;;;;;36.78;18.88;;;7.50;99.90;;;;;;4916939;29;19931;-85
2021/03/02 18:34:55;;;;;;;40.92;17.67;;;7.50;99.90;;;;;;4939821;29;20401;-86
2021/03/02 18:37:23;;;;;;;42.67;19.17;;;7.50;99.90;;;;;;4946527;29;20126;-85
2021/03/02 18:39:53;;;;;;;37.28;19.23;;;7.40;99.90;;;;;;4952064;29;20388;-84
2021/03/02 18:42:19;;;;;;;41.42;19.45;;;7.30;99.90;;;;;;4950969;29;20063;-85
2021/03/02 18:44:54;;;;;;;37.80;18.92;;;7.20;99.90;;;;;;4953187;29;20044;-88
2021/03/02 18:47:24;;;;;;;41.83;18.77;;;7.20;99.90;;;;;;4952963;29;20082;-86
2021/03/02 18:49:54;;;;;;;39.85;19.70;;;7.10;99.90;;;;;;4954041;28;20044;-87
2021/03/02 18:52:20;;;;;;;40.97;19.10;;;7.20;99.90;;;;;;4952634;28;20052;-86
2021/03/02 18:54:54;;;;;;;41.85;18.60;;;7.10;99.90;;;;;;4951149;28;20167;-87
2021/03/02 18:57:21;;;;;;;43.42;20.50;;;7.00;99.90;;;;;;4952091;29;20217;-85
2021/03/02 18:59:53;;;;;;;37.05;20.45;;;6.90;99.90;;;;;;4934965;29;20062;-86
2021/03/02 19:02:20;;;;;;;36.13;18.23;;;6.90;99.90;;;;;;4942797;28;20044;-86
2021/03/02 19:04:50;;;;;;;36.75;18.90;;;6.80;99.90;;;;;;4936389;29;20066;-87
2021/03/02 19:07:16;;;;;;;40.28;17.73;;;6.60;99.90;;;;;;4939540;29;20110;-85
2021/03/02 19:09:54;;;;;;;36.15;18.42;;;6.60;99.90;;;;;;4938420;29;20064;-88
2021/03/02 19:12:25;;;;;;;39.10;20.50;;;6.50;99.90;;;;;;4948383;29;20102;-87
2021/03/02 19:14:51;;;;;;;36.97;19.25;;;6.40;99.90;;;;;;4943767;28;20106;-87
2021/03/02 19:17:20;;;;;;;41.78;20.52;;;6.40;99.90;;;;;;4939930;28;20122;-88
2021/03/02 19:19:49;;;;;;;44.75;23.63;;;6.30;99.90;;;;;;4935279;29;20217;-86
2021/03/02 19:22:16;;;;;;;45.65;20.30;;;6.20;99.90;;;;;;4936866;29;20052;-87
2021/03/02 19:24:54;;;;;;;40.45;20.55;;;6.10;99.90;;;;;;4955712;28;20128;-88
2021/03/02 19:27:21;;;;;;;42.47;20.15;;;6.10;99.90;;;;;;4937320;29;20494;-87
2021/03/02 19:29:56;;;;;;;42.33;20.50;;;6.10;99.90;;;;;;4939838;29;20060;-87
2021/03/02 19:32:25;;;;;;;41.83;19.38;;;6.10;99.90;;;;;;4933201;29;20052;-89
2021/03/02 19:34:54;;;;;;;42.78;17.50;;;6.10;99.90;;;;;;4911479;29;20127;-89
2021/03/02 19:37:20;;;;;;;43.22;20.10;;;6.00;99.90;;;;;;4926971;29;20100;-89
2021/03/02 19:39:50;;;;;;;37.42;18.10;;;6.00;99.90;;;;;;4925573;29;20434;-90
2021/03/02 19:42:17;;;;;;;38.85;18.63;;;5.90;99.90;;;;;;4918677;29;20235;-89
2021/03/02 19:44:52;;;;;;;42.25;20.40;;;6.00;99.90;;;;;;4918613;29;20127;-89
2021/03/02 19:47:25;;;;;;;40.97;19.92;;;6.10;99.90;;;;;;4917259;29;20048;-87
2021/03/02 19:49:51;;;;;;;54.67;21.38;;;6.10;99.90;;;;;;4919878;29;20119;-88
2021/03/02 19:52:21;;;;;;;46.85;22.50;;;6.10;99.90;;;;;;4904152;29;20076;-89
2021/03/02 19:54:53;;;;;;;59.17;23.13;;;6.20;99.90;;;;;;4917537;29;20044;-88
2021/03/02 19:57:19;;;;;;;43.05;21.65;;;6.30;99.90;;;;;;4929079;29;20052;-89
2021/03/02 19:59:49;;;;;;;41.25;19.73;;;6.20;99.90;;;;;;4911290;29;20111;-90
2021/03/02 20:02:15;;;;;;;42.03;20.13;;;6.10;99.90;;;;;;4919119;29;20052;-87
2021/03/02 20:04:55;;;;;;;41.55;20.05;;;6.00;99.90;;;;;;4931721;29;20525;-89
2021/03/02 20:07:24;;;;;;;39.58;19.85;;;5.90;99.90;;;;;;4915319;29;20072;-89
2021/03/02 20:09:51;;;;;;;39.90;20.33;;;5.80;99.90;;;;;;4921362;29;20060;-89
2021/03/02 20:12:20;;;;;;;38.78;19.05;;;5.80;99.90;;;;;;4920812;29;20085;-90
2021/03/02 20:14:49;;;;;;;40.83;20.95;;;5.70;99.90;;;;;;4920002;29;20087;-89
2021/03/02 20:17:20;;;;;;;36.15;19.67;;;5.70;99.90;;;;;;4927094;29;20063;-88
2021/03/02 20:19:57;;;;;;;40.55;20.20;;;5.60;99.90;;;;;;4940063;29;20073;-90
2021/03/02 20:22:25;;;;;;;39.67;19.30;;;5.50;99.90;;;;;;4939645;29;20059;-89
2021/03/02 20:24:54;;;;;;;37.63;20.00;;;5.50;99.90;;;;;;4942112;29;20162;-88
2021/03/02 20:27:24;;;;;;;40.85;19.85;;;5.50;99.90;;;;;;4944968;29;20070;-88
2021/03/02 20:30:22;;;;;;;41.05;20.60;;;5.40;99.90;;;;;;4948794;29;20047;-91
2021/03/02 20:32:51;;;;;;;41.75;19.45;;;5.40;99.90;;;;;;4921628;29;20072;-89
2021/03/02 20:35:22;;;;;;;42.13;19.92;;;5.50;99.90;;;;;;4916259;29;20542;-89
2021/03/02 20:37:48;;;;;;;46.92;21.45;;;5.60;99.90;;;;;;4936958;29;20067;-88
2021/03/02 20:40:16;;;;;;;43.28;20.70;;;5.50;99.90;;;;;;4930563;29;20047;-87
2021/03/02 20:42:51;;;;;;;40.67;21.38;;;5.40;99.90;;;;;;4937345;29;20066;-88
2021/03/02 20:45:19;;;;;;;39.08;20.10;;;5.40;99.90;;;;;;4936164;29;20059;-89
2021/03/02 20:47:49;;;;;;;46.65;21.17;;;5.30;99.90;;;;;;4934294;29;20126;-88
2021/03/02 20:50:21;;;;;;;44.10;21.85;;;5.30;99.90;;;;;;4938053;29;20048;-88
2021/03/02 20:52:49;;;;;;;43.42;22.17;;;5.20;99.90;;;;;;4916259;29;20058;-88
2021/03/02 20:55:17;;;;;;;50.30;25.17;;;5.10;99.90;;;;;;4939775;29;20039;-88
2021/03/02 20:57:49;;;;;;;45.50;24.08;;;5.00;99.90;;;;;;4939638;29;20418;-87
2021/03/02 21:00:16;;;;;;;;;;;5.00;99.90;;;;;;4940766;29;20110;-88
2021/03/02 21:02:45;;;;;;;53.15;24.67;;;4.90;99.90;;;;;;4933521;29;19930;-86
2021/03/02 21:05:13;;;;;;;51.60;25.15;;;4.90;99.90;;;;;;4924814;29;20476;-86
2021/03/02 21:07:49;;;;;;;56.22;26.38;;;5.00;99.90;;;;;;4929979;29;20434;-89
2021/03/02 21:10:18;;;;;;;44.65;23.77;;;5.00;99.90;;;;;;4954263;28;20055;-88
2021/03/02 21:12:46;;;;;;;52.20;24.90;;;4.80;99.90;;;;;;4958183;28;20036;-88
2021/03/02 21:15:13;;;;;;;58.47;30.75;;;4.80;99.90;;;;;;4958432;29;20111;-88
2021/03/02 21:18:08;;;;;;;60.05;32.60;;;4.70;99.90;;;;;;5015956;23;20098;-88
2021/03/02 21:20:48;;;;;;;64.15;32.95;;;4.70;99.90;;;;;;4956222;29;20055;-88
2021/03/02 21:23:18;;;;;;;60.95;31.10;;;4.70;99.90;;;;;;4945531;29;20056;-88
2021/03/02 21:25:49;;;;;;;54.28;25.38;;;4.70;99.90;;;;;;4936859;29;20087;-88
2021/03/02 21:28:17;;;;;;;52.83;24.13;;;4.80;99.90;;;;;;4937286;29;20109;-88
2021/03/02 21:30:49;;;;;;;50.97;25.85;;;4.90;99.90;;;;;;4931229;29;20060;-89
2021/03/02 21:33:16;;;;;;;53.55;26.08;;;4.90;99.90;;;;;;4925926;29;20065;-88
2021/03/02 21:35:54;;;;;;;57.75;30.13;;;4.90;99.90;;;;;;4935685;29;20150;-87
2021/03/02 21:38:21;;;;;;;55.55;28.88;;;4.80;99.90;;;;;;4935290;29;20082;-88
2021/03/02 21:40:48;;;;;;;55.45;25.88;;;4.70;99.90;;;;;;4934752;29;20063;-89
2021/03/02 21:43:15;;;;;;;50.30;25.05;;;4.60;99.90;;;;;;4935411;29;20108;-88
2021/03/02 21:45:48;;;;;;;51.47;25.75;;;4.60;99.90;;;;;;4921351;29;20111;-88
2021/03/02 21:48:16;;;;;;;45.53;22.48;;;4.50;99.90;;;;;;4937553;29;20063;-87
2021/03/02 21:50:48;;;;;;;41.80;21.90;;;4.50;99.90;;;;;;4923574;29;20068;-87
2021/03/02 21:53:15;;;;;;;;;;;4.40;99.90;;;;;;4917920;29;20411;-87
2021/03/02 21:55:50;;;;;;;42.63;21.42;;;4.40;99.90;;;;;;4919815;29;20265;-88
2021/03/02 21:58:30;;;;;;;47.67;21.88;;;4.30;99.90;;;;;;4917820;29;20056;-89
2021/03/02 22:01:14;;;;;;;42.22;21.95;;;4.20;99.90;;;;;;4927730;29;20074;-89
2021/03/02 22:03:46;;;;;;;51.40;23.50;;;4.20;99.90;;;;;;4928619;29;20545;-88
2021/03/02 22:06:13;;;;;;;;;;;4.20;99.90;;;;;;4929946;29;20131;-86
2021/03/02 22:08:40;;;;;;;43.75;23.27;;;4.20;99.90;;;;;;4931412;29;19938;-90
2021/03/02 22:11:06;;;;;;;57.00;25.88;;;4.20;99.90;;;;;;4931749;29;20122;-88
2021/03/02 22:13:48;;;;;;;50.53;24.95;;;4.10;99.90;;;;;;4930015;29;20047;-87
2021/03/02 22:16:15;;;;;;;62.13;26.95;;;4.10;99.90;;;;;;4926616;29;20071;-87
2021/03/02 22:18:42;;;;;;;53.92;27.10;;;4.10;99.90;;;;;;4923227;29;20056;-87
2021/03/02 22:21:11;;;;;;;58.22;28.88;;;4.00;99.90;;;;;;4938417;29;20442;-86
2021/03/02 22:23:38;;;;;;;56.38;27.90;;;3.90;99.90;;;;;;4925716;29;20143;-87
2021/03/02 22:26:04;;;;;;;63.95;29.92;;;4.00;99.90;;;;;;4924983;29;20124;-87
2021/03/02 22:28:48;;;;;;;56.92;26.45;;;4.00;99.90;;;;;;4922371;29;20505;-86
2021/03/02 22:31:17;;;;;;;54.92;27.08;;;4.00;99.90;;;;;;4923065;29;20059;-87
2021/03/02 22:33:47;;;;;;;51.75;23.83;;;4.00;99.90;;;;;;4924350;29;20131;-88
2021/03/02 22:36:14;;;;;;;46.80;23.58;;;4.00;99.90;;;;;;4923271;29;20135;-87
2021/03/02 22:38:52;;;;;;;46.42;23.13;;;4.10;99.90;;;;;;4921599;29;20130;-87
2021/03/02 22:41:23;;;;;;;40.22;21.08;;;4.20;99.90;;;;;;4937909;29;20079;-87
2021/03/02 22:43:52;;;;;;;45.72;21.70;;;4.20;99.90;;;;;;4937621;29;20067;-87
2021/03/02 22:46:19;;;;;;;50.80;23.52;;;4.10;99.90;;;;;;4920353;29;20600;-87
2021/03/02 22:48:51;;;;;;;42.03;21.00;;;4.10;99.90;;;;;;4937979;29;20083;-87
2021/03/02 22:51:19;;;;;;;48.97;22.20;;;4.10;99.90;;;;;;4938242;29;20052;-87
2021/03/02 22:53:45;;;;;;;42.67;21.63;;;4.30;99.90;;;;;;4938594;29;20122;-87
2021/03/02 22:56:12;;;;;;;37.72;19.13;;;4.40;99.90;;;;;;4923098;29;20056;-88
2021/03/02 22:58:38;;;;;;;48.97;20.23;;;4.60;99.90;;;;;;4924302;29;20063;-88
2021/03/02 23:01:05;;;;;;;38.30;19.33;;;4.70;99.90;;;;;;4925027;29;20048;-88
2021/03/02 23:03:32;;;;;;;42.72;20.33;;;4.60;99.90;;;;;;4926957;29;20055;-87
2021/03/02 23:05:59;;;;;;;40.03;19.27;;;4.60;99.90;;;;;;4926937;29;20510;-87
2021/03/02 23:08:27;;;;;;;42.22;19.70;;;4.50;99.90;;;;;;4951131;29;20067;-87
2021/03/02 23:10:53;;;;;;;45.88;20.80;;;4.40;99.90;;;;;;4945520;29;20075;-87
2021/03/02 23:13:22;;;;;;;39.25;20.08;;;4.40;99.90;;;;;;4931781;29;20111;-87
2021/03/02 23:15:48;;;;;;;37.55;19.95;;;4.30;99.90;;;;;;4931249;29;20055;-87
2021/03/02 23:18:15;;;;;;;39.85;17.70;;;4.40;99.90;;;;;;4925363;29;20180;-87
2021/03/02 23:20:41;;;;;;;48.90;19.63;;;4.40;99.90;;;;;;4926621;29;20387;-87
2021/03/02 23:23:25;;;;;;;35.30;17.98;;;4.50;99.90;;;;;;4927318;29;20157;-87
2021/03/02 23:25:54;;;;;;;48.50;19.40;;;4.50;99.90;;;;;;4927343;29;20425;-87
2021/03/02 23:28:21;;;;;;;39.53;20.42;;;4.50;99.90;;;;;;4924997;29;20122;-87
2021/03/02 23:30:50;;;;;;;41.05;18.42;;;4.50;99.90;;;;;;4927923;29;20737;-87
2021/03/02 23:33:17;;;;;;;35.70;19.10;;;4.40;99.90;;;;;;4928856;29;20075;-87
2021/03/02 23:35:44;;;;;;;45.55;20.85;;;4.30;99.90;;;;;;4914169;29;20089;-87
2021/03/02 23:38:12;;;;;;;39.47;18.70;;;4.30;99.90;;;;;;4942096;29;20047;-87
2021/03/02 23:40:38;;;;;;;36.67;17.90;;;4.30;99.90;;;;;;4929308;29;20091;-87
2021/03/02 23:43:08;;;;;;;38.70;19.20;;;4.20;99.90;;;;;;4939080;29;20056;-88
2021/03/02 23:45:35;;;;;;;40.30;18.92;;;4.20;99.90;;;;;;4933240;29;20052;-88
2021/03/02 23:48:02;;;;;;;39.92;20.48;;;4.20;99.90;;;;;;4933601;29;20059;-86
2021/03/02 23:50:48;;;;;;;42.20;19.90;;;4.20;99.90;;;;;;4935232;29;20083;-87
2021/03/02 23:53:14;;;;;;;40.83;19.35;;;4.30;99.90;;;;;;4928863;29;20122;-87
2021/03/02 23:55:43;;;;;;;34.22;17.75;;;4.30;99.90;;;;;;4943322;29;20047;-87
2021/03/02 23:58:09;;;;;;;34.72;18.98;;;4.30;99.90;;;;;;4951358;29;20048;-87
